Terminal Aerodrome Forecast
Issued by NWS

Home | Current Version | Previous Version | Text Only | Print | Product List | Glossary On
Versions: 1 2 3 4 5 6 7 8 9 10 11 12 13 14 15 16 17 18 19 20 21 22 23 24 25
000
FTUS41 KGYX 211226 AAA
TAFLEB
TAF AMD
KLEB 211226Z 2112/2212 VRB03KT P6SM OVC008
     FM211500 VRB03KT P6SM BKN040
     FM211800 19008KT 5SM -SHRA BR BKN030
     FM220600 VRB03KT 2SM BR OVC005=

USA.gov is the U.S. government's official web portal to all federal, state and local government web resources and services.